Time;durP1;ratioP1;P1;durP2;ratioP2;P2;SDS_P1;SDS_P2;PMS_P1;PMS_P2;Temp;Humidity;BMP_temperature;BMP_pressure;BME280_temperature;BME280_humidity;BME280_pressure;Samples;Min_cycle;Max_cycle;Signal;HPM_P1;HPM_P2
2022/10/02 00:00:11;;;;;;;19.45;3.72;;;17.80;99.90;;;;;;5051984;28;19960;-65
2022/10/02 00:02:54;;;;;;;31.15;4.20;;;17.70;99.90;;;;;;5052303;28;20090;-65
2022/10/02 00:05:41;;;;;;;32.65;4.50;;;17.90;99.90;;;;;;5052156;28;20029;-65
2022/10/02 00:08:28;;;;;;;23.35;4.65;;;17.80;99.90;;;;;;5052018;28;20037;-65
2022/10/02 00:10:58;;;;;;;26.00;3.90;;;17.80;99.90;;;;;;5051646;28;20061;-65
2022/10/02 00:13:41;;;;;;;26.52;3.75;;;17.60;99.90;;;;;;5051825;28;20041;-65
2022/10/02 00:16:21;;;;;;;25.55;4.03;;;17.60;99.90;;;;;;5051664;28;20040;-65
2022/10/02 00:18:47;;;;;;;16.55;3.20;;;17.50;99.90;;;;;;5050720;28;20080;-65
2022/10/02 00:21:44;;;;;;;26.90;4.13;;;17.50;99.90;;;;;;5050423;28;20102;-65
2022/10/02 00:24:21;;;;;;;17.65;2.75;;;17.50;99.90;;;;;;5051798;28;20045;-64
2022/10/02 00:27:14;;;;;;;19.58;3.90;;;17.30;99.90;;;;;;5050163;28;20055;-65
2022/10/02 00:29:52;;;;;;;19.60;3.25;;;17.40;99.90;;;;;;5050424;28;20053;-65
2022/10/02 00:32:57;;;;;;;23.17;4.55;;;17.20;99.90;;;;;;5051528;28;20131;-65
2022/10/02 00:35:26;;;;;;;18.02;3.40;;;17.20;99.90;;;;;;5035838;28;20041;-65
2022/10/02 00:38:06;;;;;;;21.98;3.45;;;17.10;99.90;;;;;;5051578;28;20037;-65
2022/10/02 00:41:12;;;;;;;20.52;3.80;;;17.10;99.90;;;;;;5051441;28;20048;-65
2022/10/02 00:43:43;;;;;;;18.52;3.47;;;17.20;99.90;;;;;;5051449;28;20044;-65
2022/10/02 00:46:22;;;;;;;20.27;3.60;;;17.20;99.90;;;;;;5051091;28;20487;-65
2022/10/02 00:48:59;;;;;;;21.20;3.22;;;17.30;99.90;;;;;;5051435;28;20094;-65
2022/10/02 00:51:40;;;;;;;24.48;3.20;;;17.20;99.90;;;;;;5050364;28;20151;-65
2022/10/02 00:54:34;;;;;;;13.95;2.78;;;17.20;99.90;;;;;;5051073;28;20044;-66
2022/10/02 00:57:14;;;;;;;18.77;3.05;;;17.20;99.90;;;;;;5050335;28;20067;-65
2022/10/02 01:00:03;;;;;;;16.40;2.78;;;17.20;99.90;;;;;;5049717;28;20049;-65
2022/10/02 01:02:52;;;;;;;21.00;3.30;;;17.10;99.90;;;;;;5051765;28;20120;-65
2022/10/02 01:05:19;;;;;;;22.23;3.03;;;17.10;99.90;;;;;;5051215;28;20099;-65
2022/10/02 01:07:50;;;;;;;19.60;3.30;;;17.00;99.90;;;;;;5050146;28;20063;-65
2022/10/02 01:10:16;;;;;;;17.95;3.38;;;17.00;99.90;;;;;;5049414;28;20067;-65
2022/10/02 01:12:42;;;;;;;18.33;3.17;;;17.10;99.90;;;;;;5051172;28;20463;-64
2022/10/02 01:15:17;;;;;;;17.08;3.30;;;17.10;99.90;;;;;;5050989;28;20124;-64
2022/10/02 01:17:45;;;;;;;20.42;3.70;;;17.00;99.90;;;;;;5050924;28;20491;-65
2022/10/02 01:20:16;;;;;;;20.58;3.15;;;17.10;99.90;;;;;;5050953;28;20045;-65
2022/10/02 01:23:23;;;;;;;16.33;3.40;;;17.10;99.90;;;;;;5050112;28;20509;-65
2022/10/02 01:25:49;;;;;;;24.55;3.65;;;17.10;99.90;;;;;;5050762;28;20522;-65
2022/10/02 01:28:15;;;;;;;21.88;3.17;;;17.00;99.90;;;;;;5049920;28;20037;-65
2022/10/02 01:30:43;;;;;;;13.13;3.08;;;17.00;99.90;;;;;;5050737;28;20051;-64
2022/10/02 01:33:09;;;;;;;18.70;3.05;;;16.90;99.90;;;;;;5049540;28;20053;-65
2022/10/02 01:35:37;;;;;;;19.17;3.20;;;17.10;99.90;;;;;;5050901;28;20033;-65
2022/10/02 01:38:07;;;;;;;22.42;3.60;;;17.00;99.90;;;;;;5050947;28;20112;-65
2022/10/02 01:40:35;;;;;;;23.02;3.95;;;17.20;99.90;;;;;;5050608;28;20124;-64
2022/10/02 01:43:10;;;;;;;22.95;3.42;;;17.80;99.90;;;;;;5051075;28;20510;-65
2022/10/02 01:45:59;;;;;;;29.20;3.63;;;17.30;99.90;;;;;;5049311;28;20048;-65
2022/10/02 01:48:41;;;;;;;19.75;3.08;;;17.20;99.90;;;;;;5050919;28;20486;-64
2022/10/02 01:51:19;;;;;;;22.45;3.83;;;17.30;99.90;;;;;;5051012;28;20120;-65
2022/10/02 01:53:57;;;;;;;22.45;3.38;;;17.30;99.90;;;;;;5050689;28;20049;-65
2022/10/02 01:56:46;;;;;;;21.55;3.58;;;17.40;99.90;;;;;;5050570;28;20539;-65
2022/10/02 01:59:35;;;;;;;22.35;3.10;;;17.40;99.90;;;;;;5050483;28;20040;-65
2022/10/02 02:02:17;;;;;;;23.08;3.58;;;17.40;99.90;;;;;;5050844;28;20033;-65
2022/10/02 02:05:02;;;;;;;19.05;3.20;;;17.40;99.90;;;;;;5050734;28;20049;-65
2022/10/02 02:08:09;;;;;;;19.48;3.22;;;17.50;99.90;;;;;;5050097;28;20266;-65
2022/10/02 02:10:44;;;;;;;19.50;3.20;;;17.40;99.90;;;;;;5039513;28;20140;-65
2022/10/02 02:13:17;;;;;;;20.63;2.97;;;17.50;99.90;;;;;;5036618;28;20084;-64
2022/10/02 02:15:53;;;;;;;18.00;2.92;;;17.40;99.90;;;;;;5052611;28;20051;-64
2022/10/02 02:18:27;;;;;;;17.70;3.22;;;17.40;99.90;;;;;;5054600;28;20037;-65
2022/10/02 02:21:02;;;;;;;20.55;3.13;;;17.40;99.90;;;;;;5054024;28;20074;-64
2022/10/02 02:23:32;;;;;;;19.80;3.60;;;17.40;99.90;;;;;;5054127;28;20040;-65
2022/10/02 02:26:11;;;;;;;24.45;3.38;;;17.40;99.90;;;;;;5053786;28;20048;-65
2022/10/02 02:28:42;;;;;;;18.10;3.20;;;17.40;99.90;;;;;;5053730;28;20525;-65
2022/10/02 02:31:11;;;;;;;19.60;3.15;;;17.40;99.90;;;;;;5053645;28;20047;-64
2022/10/02 02:33:39;;;;;;;29.42;4.07;;;17.50;99.90;;;;;;5052347;28;20055;-65
2022/10/02 02:36:12;;;;;;;27.65;4.13;;;17.40;99.90;;;;;;5053873;28;20625;-65
2022/10/02 02:38:48;;;;;;;24.80;4.20;;;17.50;99.90;;;;;;5053808;28;20051;-65
2022/10/02 02:41:26;;;;;;;19.60;3.42;;;17.50;99.90;;;;;;5053386;28;20190;-64
2022/10/02 02:44:00;;;;;;;18.05;3.85;;;17.60;99.90;;;;;;5052584;28;20041;-65
2022/10/02 02:47:02;;;;;;;22.13;3.63;;;17.60;99.90;;;;;;5053523;28;20041;-65
2022/10/02 02:49:28;;;;;;;25.73;3.50;;;17.80;99.90;;;;;;5052026;28;20053;-64
2022/10/02 02:51:56;;;;;;;15.27;2.75;;;17.70;99.90;;;;;;5053723;28;20044;-65
2022/10/02 02:54:29;;;;;;;16.65;3.30;;;17.70;99.90;;;;;;5052958;28;20033;-65
2022/10/02 02:56:58;;;;;;;16.10;3.60;;;17.60;99.90;;;;;;5053440;28;20060;-64
2022/10/02 02:59:30;;;;;;;22.90;3.35;;;17.60;99.90;;;;;;5052002;28;20045;-65
2022/10/02 03:01:56;;;;;;;18.27;2.92;;;17.60;99.90;;;;;;5053210;28;20037;-65
2022/10/02 03:04:21;;;;;;;18.65;3.35;;;17.50;99.90;;;;;;5053402;28;20047;-65
2022/10/02 03:06:51;;;;;;;20.17;3.15;;;17.50;99.90;;;;;;5053119;28;20079;-64
2022/10/02 03:09:19;;;;;;;21.27;3.60;;;17.40;99.90;;;;;;5051715;28;20107;-64
2022/10/02 03:12:10;;;;;;;16.60;3.17;;;17.40;99.90;;;;;;5052921;28;20044;-64
2022/10/02 03:14:50;;;;;;;18.55;3.75;;;17.30;99.90;;;;;;5052865;28;20473;-65
2022/10/02 03:17:32;;;;;;;19.40;3.70;;;17.40;99.90;;;;;;5053035;28;20090;-64
2022/10/02 03:20:29;;;;;;;29.30;3.80;;;17.30;99.90;;;;;;5052018;28;20495;-64
2022/10/02 03:23:22;;;;;;;16.55;3.08;;;17.20;99.90;;;;;;5052815;28;20039;-64
2022/10/02 03:26:20;;;;;;;22.63;3.65;;;17.30;99.90;;;;;;5051322;28;20513;-64
2022/10/02 03:28:52;;;;;;;24.40;4.00;;;17.30;99.90;;;;;;5049642;28;20053;-64
2022/10/02 03:31:19;;;;;;;19.88;3.20;;;17.20;99.90;;;;;;5052353;28;20502;-66
2022/10/02 03:33:46;;;;;;;21.88;3.05;;;17.20;99.90;;;;;;5052543;28;20044;-65
2022/10/02 03:36:15;;;;;;;20.38;3.17;;;17.20;99.90;;;;;;5052773;28;20047;-64
2022/10/02 03:38:41;;;;;;;17.58;3.70;;;17.20;99.90;;;;;;5051296;28;20048;-65
2022/10/02 03:41:07;;;;;;;19.10;2.97;;;17.20;99.90;;;;;;5051065;28;20483;-64
2022/10/02 03:43:33;;;;;;;21.23;3.60;;;17.20;99.90;;;;;;5051127;28;20045;-64
2022/10/02 03:45:58;;;;;;;25.58;4.03;;;17.10;99.90;;;;;;5052130;28;20082;-65
2022/10/02 03:48:24;;;;;;;21.33;3.42;;;17.00;99.90;;;;;;5052559;28;20379;-64
2022/10/02 03:50:50;;;;;;;21.38;2.97;;;17.10;99.90;;;;;;5052497;28;20049;-65
2022/10/02 03:53:19;;;;;;;20.80;3.88;;;17.00;99.90;;;;;;5052290;28;20053;-65
2022/10/02 03:55:51;;;;;;;21.92;3.85;;;16.90;99.90;;;;;;5050316;28;20036;-64
2022/10/02 03:58:17;;;;;;;28.40;4.28;;;17.00;99.90;;;;;;5052161;28;20036;-65
2022/10/02 04:00:58;;;;;;;24.70;4.32;;;17.00;99.90;;;;;;5051877;28;20041;-64
2022/10/02 04:03:32;;;;;;;27.10;4.20;;;16.90;99.90;;;;;;5050817;28;20401;-64
2022/10/02 04:06:25;;;;;;;20.88;3.50;;;16.90;99.90;;;;;;5052208;28;20477;-64
2022/10/02 04:08:58;;;;;;;19.08;4.03;;;16.90;99.90;;;;;;5051967;28;20048;-64
2022/10/02 04:11:40;;;;;;;25.05;3.78;;;17.60;99.90;;;;;;5051663;28;20224;-65
2022/10/02 04:14:31;;;;;;;27.75;4.43;;;16.90;99.90;;;;;;5051841;28;20051;-64
2022/10/02 04:17:01;;;;;;;20.50;3.70;;;17.00;99.90;;;;;;5051873;28;20048;-65
2022/10/02 04:19:55;;;;;;;20.35;3.67;;;17.00;99.90;;;;;;5051633;28;20076;-64
2022/10/02 04:22:30;;;;;;;19.52;3.50;;;16.90;99.90;;;;;;5050509;28;20453;-64
2022/10/02 04:25:05;;;;;;;20.77;4.30;;;16.90;99.90;;;;;;5051663;28;20039;-64
2022/10/02 04:27:41;;;;;;;24.48;3.78;;;16.90;99.90;;;;;;5051664;28;20088;-65
2022/10/02 04:30:13;;;;;;;28.73;4.10;;;17.00;99.90;;;;;;5049960;28;20422;-65
2022/10/02 04:32:38;;;;;;;22.13;3.53;;;17.00;99.90;;;;;;5051792;28;20040;-64
2022/10/02 04:35:22;;;;;;;19.38;3.53;;;16.90;99.90;;;;;;5050305;28;20060;-64
2022/10/02 04:38:15;;;;;;;25.20;3.63;;;16.80;99.90;;;;;;5051644;28;20044;-64
2022/10/02 04:41:06;;;;;;;26.58;4.38;;;16.80;99.90;;;;;;5050250;28;20530;-64
2022/10/02 04:43:47;;;;;;;24.55;3.60;;;16.90;99.90;;;;;;5050235;28;20066;-64
2022/10/02 04:46:12;;;;;;;20.92;3.05;;;17.00;99.90;;;;;;5051351;28;20049;-64
2022/10/02 04:48:38;;;;;;;19.73;3.72;;;16.90;99.90;;;;;;5051387;28;20086;-65
2022/10/02 04:51:19;;;;;;;38.30;4.07;;;17.00;99.90;;;;;;5051601;28;20048;-65
2022/10/02 04:54:09;;;;;;;24.38;4.40;;;16.90;99.90;;;;;;5051290;28;20087;-64
2022/10/02 04:57:04;;;;;;;24.23;4.18;;;16.90;99.90;;;;;;5051314;28;20052;-64
2022/10/02 04:59:52;;;;;;;27.52;3.63;;;16.90;99.90;;;;;;5051292;28;20040;-64
2022/10/02 05:02:41;;;;;;;23.60;3.78;;;16.90;99.90;;;;;;5049916;28;20084;-64
2022/10/02 05:05:25;;;;;;;23.98;3.50;;;16.90;99.90;;;;;;5051264;28;20065;-64
2022/10/02 05:08:09;;;;;;;25.33;3.67;;;16.90;99.90;;;;;;5051261;28;20033;-64
2022/10/02 05:10:51;;;;;;;20.63;3.25;;;16.80;99.90;;;;;;5049501;28;20110;-65
2022/10/02 05:13:52;;;;;;;22.95;3.10;;;16.70;99.90;;;;;;5051197;28;20422;-64
2022/10/02 05:16:47;;;;;;;20.73;3.22;;;16.70;99.90;;;;;;5051010;28;20079;-65
2022/10/02 05:19:41;;;;;;;19.67;3.05;;;16.60;99.90;;;;;;5051101;28;20033;-64
2022/10/02 05:22:31;;;;;;;18.45;3.15;;;16.40;99.90;;;;;;5051063;28;20040;-65
2022/10/02 05:25:18;;;;;;;18.30;3.20;;;16.50;99.90;;;;;;5049681;28;20037;-65
2022/10/02 05:28:27;;;;;;;23.60;3.38;;;16.50;99.90;;;;;;5050081;28;20518;-64
2022/10/02 05:31:02;;;;;;;21.88;4.05;;;16.60;99.90;;;;;;5050675;28;20041;-64
2022/10/02 05:33:31;;;;;;;28.60;4.15;;;16.70;99.90;;;;;;5050345;28;20045;-65
2022/10/02 05:36:10;;;;;;;23.77;3.65;;;16.70;99.90;;;;;;5050663;28;20048;-64
2022/10/02 05:38:53;;;;;;;20.40;3.30;;;16.80;99.90;;;;;;5049700;28;20400;-64
2022/10/02 05:41:21;;;;;;;28.15;3.80;;;16.90;99.90;;;;;;5049397;28;20037;-64
2022/10/02 05:44:01;;;;;;;27.85;4.32;;;16.90;99.90;;;;;;5053920;28;20079;-64
2022/10/02 05:46:32;;;;;;;25.98;4.38;;;16.90;99.90;;;;;;5054691;28;20072;-64
2022/10/02 05:49:16;;;;;;;24.17;3.55;;;17.00;99.90;;;;;;5054917;28;20080;-64
2022/10/02 05:51:56;;;;;;;19.10;3.65;;;17.00;99.90;;;;;;5054793;28;20052;-64
2022/10/02 05:54:32;;;;;;;25.00;4.10;;;17.00;99.90;;;;;;5054362;28;20041;-65
2022/10/02 05:57:19;;;;;;;27.48;4.03;;;17.10;99.90;;;;;;5054412;28;20072;-65
2022/10/02 06:00:09;;;;;;;21.23;3.25;;;17.10;99.90;;;;;;5054238;28;20045;-65
2022/10/02 06:02:43;;;;;;;27.67;4.57;;;17.20;99.90;;;;;;5054670;28;20060;-65
2022/10/02 06:05:20;;;;;;;24.73;3.63;;;17.10;99.90;;;;;;5054329;28;20122;-64
2022/10/02 06:07:50;;;;;;;27.23;4.10;;;16.60;99.90;;;;;;5054786;28;20044;-65
2022/10/02 06:10:25;;;;;;;21.10;3.25;;;16.50;99.90;;;;;;5052506;28;20053;-64
2022/10/02 06:13:23;;;;;;;23.42;3.22;;;16.20;99.90;;;;;;5054297;28;20077;-64
2022/10/02 06:16:16;;;;;;;23.63;3.70;;;16.10;99.90;;;;;;5041058;28;20044;-64
2022/10/02 06:18:48;;;;;;;31.55;3.80;;;16.10;99.90;;;;;;5054160;28;20483;-64
2022/10/02 06:21:36;;;;;;;31.52;3.95;;;16.00;99.90;;;;;;5054079;28;20045;-65
2022/10/02 06:24:09;;;;;;;31.48;4.03;;;15.90;99.90;;;;;;5052824;28;20049;-65
2022/10/02 06:26:48;;;;;;;31.55;3.10;;;16.00;99.90;;;;;;5052564;28;20547;-64
2022/10/02 06:29:38;;;;;;;28.88;4.40;;;15.90;99.90;;;;;;5052609;28;20051;-65
2022/10/02 06:32:16;;;;;;;29.77;3.97;;;15.90;99.90;;;;;;5052831;28;20041;-65
2022/10/02 06:34:44;;;;;;;27.80;3.85;;;15.90;99.90;;;;;;5053802;28;20049;-64
2022/10/02 06:37:34;;;;;;;27.65;3.60;;;16.00;99.90;;;;;;5052783;28;20041;-64
2022/10/02 06:40:36;;;;;;;27.13;3.40;;;16.00;99.90;;;;;;5052289;28;20095;-64
2022/10/02 06:43:27;;;;;;;30.67;4.07;;;16.20;99.90;;;;;;5053847;28;20045;-64
2022/10/02 06:46:17;;;;;;;25.08;4.05;;;16.30;99.90;;;;;;5045237;28;20053;-64
2022/10/02 06:49:18;;;;;;;28.35;3.70;;;16.60;99.90;;;;;;5053594;28;20080;-65
2022/10/02 06:51:54;;;;;;;21.77;3.53;;;16.70;99.90;;;;;;5053547;28;20051;-64
2022/10/02 06:54:28;;;;;;;;;;;16.80;99.90;;;;;;5053761;28;20056;-64
2022/10/02 06:57:10;;;;;;;22.33;4.20;;;16.80;99.90;;;;;;5042949;28;20055;-65
2022/10/02 06:59:54;;;;;;;29.55;4.22;;;17.00;99.90;;;;;;5039832;28;20450;-64
2022/10/02 07:02:32;;;;;;;27.23;4.68;;;16.90;99.90;;;;;;5033436;28;20503;-65
2022/10/02 07:05:12;;;;;;;29.67;4.65;;;16.90;99.90;;;;;;5032347;28;20491;-64
2022/10/02 07:08:19;;;;;;;20.30;3.22;;;16.90;99.90;;;;;;5033453;28;20037;-64
2022/10/02 07:11:17;;;;;;;20.33;3.03;;;16.90;99.90;;;;;;5031177;28;20061;-64
2022/10/02 07:13:49;;;;;;;18.92;3.03;;;17.10;99.90;;;;;;5032983;28;20041;-65
2022/10/02 07:16:21;;;;;;;17.23;2.90;;;17.20;99.90;;;;;;5036837;28;20033;-64
2022/10/02 07:18:59;;;;;;;24.00;3.97;;;17.20;99.90;;;;;;5053143;28;20490;-64
2022/10/02 07:21:31;;;;;;;24.63;4.03;;;17.30;99.90;;;;;;5051549;28;20629;-65
2022/10/02 07:24:25;;;;;;;20.30;3.45;;;17.30;99.90;;;;;;5035297;28;20128;-65
2022/10/02 07:27:05;;;;;;;16.92;3.75;;;17.40;99.90;;;;;;5052950;28;20495;-64
2022/10/02 07:29:33;;;;;;;21.45;3.92;;;17.40;99.90;;;;;;5048262;28;20041;-64
2022/10/02 07:32:30;;;;;;;19.58;3.33;;;17.60;99.90;;;;;;5036833;28;20065;-65
2022/10/02 07:35:22;;;;;;;20.63;4.00;;;17.60;99.90;;;;;;5038112;28;20049;-65
2022/10/02 07:38:19;;;;;;;24.02;4.38;;;17.60;99.90;;;;;;5032717;28;20041;-66
2022/10/02 07:41:10;;;;;;;24.83;4.13;;;17.80;99.90;;;;;;5032363;28;20132;-65
2022/10/02 07:44:00;;;;;;;23.05;4.07;;;17.80;99.90;;;;;;5032542;28;20040;-65
2022/10/02 07:47:02;;;;;;;21.25;4.18;;;17.80;99.90;;;;;;5031571;28;20048;-65
2022/10/02 07:49:55;;;;;;;25.92;3.92;;;17.80;99.90;;;;;;5026060;28;20068;-65
2022/10/02 07:52:49;;;;;;;29.13;4.40;;;17.70;99.90;;;;;;5032396;28;20045;-66
2022/10/02 07:55:17;;;;;;;20.92;3.70;;;17.80;99.90;;;;;;5045880;28;20037;-65
2022/10/02 07:58:03;;;;;;;18.13;3.10;;;17.90;99.90;;;;;;5033418;28;20045;-66
2022/10/02 08:00:38;;;;;;;20.17;3.15;;;18.00;99.90;;;;;;5034411;28;20094;-66
2022/10/02 08:03:07;;;;;;;22.48;3.10;;;18.10;99.90;;;;;;5033013;28;20049;-68
2022/10/02 08:05:38;;;;;;;20.42;3.63;;;18.20;99.90;;;;;;5036088;28;20052;-65
2022/10/02 08:08:46;;;;;;;14.00;2.78;;;18.20;99.90;;;;;;5032882;28;20088;-66
2022/10/02 08:11:25;;;;;;;18.48;4.40;;;18.10;99.90;;;;;;5023961;28;20060;-66
2022/10/02 08:14:24;;;;;;;17.95;3.58;;;18.10;99.90;;;;;;5032141;28;20037;-66
2022/10/02 08:16:52;;;;;;;21.02;3.42;;;18.10;99.90;;;;;;5032146;28;20410;-66
2022/10/02 08:19:29;;;;;;;19.23;4.00;;;18.10;99.90;;;;;;5040472;28;20095;-65
2022/10/02 08:22:07;;;;;;;18.50;3.50;;;18.40;99.90;;;;;;5050515;28;20128;-66
2022/10/02 08:24:44;;;;;;;20.40;3.35;;;18.50;99.90;;;;;;5039640;28;20044;-65
2022/10/02 08:27:18;;;;;;;19.77;3.28;;;18.60;99.90;;;;;;5035336;28;20060;-65
2022/10/02 08:29:56;;;;;;;23.20;4.70;;;18.70;99.90;;;;;;5045526;28;20037;-65
2022/10/02 08:32:24;;;;;;;19.35;3.78;;;18.90;99.90;;;;;;5051067;28;20049;-65
2022/10/02 08:34:49;;;;;;;25.75;3.78;;;18.90;99.90;;;;;;5049927;28;20049;-66
2022/10/02 08:37:54;;;;;;;15.55;3.63;;;18.90;99.90;;;;;;5051522;28;20051;-65
2022/10/02 08:40:37;;;;;;;14.50;3.30;;;18.90;99.90;;;;;;5049962;28;20178;-65
2022/10/02 08:43:25;;;;;;;21.05;3.60;;;18.90;99.90;;;;;;5051550;28;20033;-66
2022/10/02 08:46:06;;;;;;;10.88;2.50;;;19.00;99.90;;;;;;5051305;28;20491;-65
2022/10/02 08:48:48;;;;;;;18.17;3.10;;;18.90;99.90;;;;;;5050459;28;20140;-65
2022/10/02 08:51:51;;;;;;;16.58;3.90;;;18.90;99.90;;;;;;5051468;28;20041;-65
2022/10/02 08:54:48;;;;;;;14.00;3.20;;;19.10;99.90;;;;;;5045319;28;20049;-65
2022/10/02 08:57:26;;;;;;;13.73;2.30;;;19.00;99.90;;;;;;5030200;28;20045;-65
2022/10/02 09:00:13;;;;;;;15.70;3.28;;;19.00;99.90;;;;;;5031396;28;20049;-65
2022/10/02 09:03:09;;;;;;;16.48;3.17;;;19.10;99.90;;;;;;5030349;28;20111;-65
2022/10/02 09:06:05;;;;;;;13.68;3.03;;;19.20;99.90;;;;;;5031372;28;20099;-65
2022/10/02 09:09:09;;;;;;;18.10;3.53;;;19.20;99.90;;;;;;5031361;28;20049;-65
2022/10/02 09:11:35;;;;;;;18.55;3.63;;;19.10;99.90;;;;;;5029633;28;20511;-65
2022/10/02 09:14:25;;;;;;;15.30;3.03;;;18.80;99.90;;;;;;5030199;28;20474;-65
2022/10/02 09:17:15;;;;;;;16.10;3.03;;;18.60;99.90;;;;;;5039058;28;20041;-65
2022/10/02 09:20:08;;;;;;;16.60;2.92;;;18.60;99.90;;;;;;5055315;28;20076;-65
2022/10/02 09:23:09;;;;;;;12.57;2.47;;;18.70;99.90;;;;;;5055191;28;20045;-65
2022/10/02 09:25:54;;;;;;;15.80;3.42;;;18.80;99.90;;;;;;5055174;28;20486;-64
2022/10/02 09:28:57;;;;;;;16.88;3.30;;;19.00;99.90;;;;;;5053872;28;20040;-65
2022/10/02 09:31:47;;;;;;;14.80;3.13;;;19.10;99.90;;;;;;5054799;28;20136;-64
2022/10/02 09:34:46;;;;;;;20.70;3.75;;;19.10;99.90;;;;;;5053877;28;20048;-65
2022/10/02 09:37:46;;;;;;;18.38;3.13;;;18.70;99.90;;;;;;5053908;28;20053;-65
2022/10/02 09:40:17;;;;;;;19.05;3.00;;;18.50;99.90;;;;;;5054952;28;20067;-64
2022/10/02 09:43:05;;;;;;;18.58;3.25;;;18.40;99.90;;;;;;5054924;28;20032;-64
2022/10/02 09:46:11;;;;;;;25.10;3.63;;;18.40;99.90;;;;;;5053553;28;20491;-64
2022/10/02 09:48:59;;;;;;;21.60;3.33;;;18.50;99.90;;;;;;5054876;28;20044;-64
2022/10/02 09:52:08;;;;;;;21.98;3.30;;;18.70;99.90;;;;;;5054709;28;20044;-65
2022/10/02 09:54:59;;;;;;;20.63;3.85;;;18.70;99.90;;;;;;5054349;28;20047;-65
2022/10/02 09:57:41;;;;;;;25.67;4.03;;;18.80;99.90;;;;;;5054628;28;20045;-64
2022/10/02 10:00:21;;;;;;;22.05;4.20;;;18.90;99.90;;;;;;5053025;28;20124;-65
2022/10/02 10:02:59;;;;;;;17.63;3.72;;;19.00;99.90;;;;;;5054635;28;20033;-64
2022/10/02 10:05:49;;;;;;;19.20;4.03;;;18.90;99.90;;;;;;5054574;28;20578;-64
2022/10/02 10:08:42;;;;;;;22.20;3.83;;;18.90;99.90;;;;;;5053414;28;20057;-64
2022/10/02 10:11:46;;;;;;;17.13;3.33;;;19.00;99.90;;;;;;5051870;28;20063;-64
2022/10/02 10:14:42;;;;;;;25.63;4.93;;;19.00;99.90;;;;;;5051663;28;20103;-64
2022/10/02 10:17:25;;;;;;;21.65;4.03;;;19.10;99.90;;;;;;5051945;28;20084;-65
2022/10/02 10:20:02;;;;;;;19.52;3.90;;;19.10;99.90;;;;;;5052910;28;20128;-64
2022/10/02 10:23:06;;;;;;;21.85;3.85;;;19.10;99.90;;;;;;5053063;28;20041;-64
2022/10/02 10:26:26;;;;;;;13.07;2.90;;;19.30;99.90;;;;;;5031570;28;20052;-64
2022/10/02 10:29:07;;;;;;;17.10;3.75;;;19.20;99.90;;;;;;4993763;28;20045;-64
2022/10/02 10:32:08;;;;;;;18.95;3.63;;;19.20;99.90;;;;;;4994074;28;20507;-63
2022/10/02 10:34:45;;;;;;;21.35;3.35;;;19.00;99.90;;;;;;5045210;28;20060;-63
2022/10/02 10:40:48;;;;;;;22.55;3.17;;;19.30;99.90;;;;;;5052508;28;20790;-64
2022/10/02 10:43:50;;;;;;;19.15;3.38;;;19.20;99.90;;;;;;5051436;28;20656;-64
2022/10/02 10:46:53;;;;;;;18.40;3.08;;;19.10;99.90;;;;;;5052281;28;20043;-64
2022/10/02 10:49:46;;;;;;;25.02;3.80;;;19.00;99.90;;;;;;5052635;28;20040;-64
2022/10/02 10:52:38;;;;;;;18.95;3.70;;;18.90;99.90;;;;;;5052528;28;20044;-64
2022/10/02 10:55:18;;;;;;;18.15;3.35;;;19.00;99.90;;;;;;5052255;28;20048;-65
2022/10/02 10:58:01;;;;;;;22.67;3.80;;;19.10;99.90;;;;;;5052456;28;20033;-64
2022/10/02 11:00:55;;;;;;;19.40;2.83;;;19.20;99.90;;;;;;5052055;28;20396;-64
2022/10/02 11:03:41;;;;;;;13.82;2.47;;;19.30;99.90;;;;;;5052457;28;20040;-64
2022/10/02 11:06:39;;;;;;;22.48;3.33;;;19.20;99.90;;;;;;5052305;28;20123;-64
2022/10/02 11:12:15;;;;;;;20.05;4.00;;;19.00;99.90;;;;;;5088924;28;20405;-64
2022/10/02 11:14:59;;;;;;;21.98;4.25;;;18.80;99.90;;;;;;5089027;28;20085;-65
2022/10/02 11:17:31;;;;;;;23.45;3.67;;;18.70;99.90;;;;;;5088732;28;20051;-64
2022/10/02 11:20:39;;;;;;;25.75;3.53;;;18.70;99.90;;;;;;5088850;28;20044;-64
2022/10/02 11:23:17;;;;;;;17.15;2.90;;;18.70;99.90;;;;;;5087511;28;20047;-64
2022/10/02 11:26:00;;;;;;;18.02;3.35;;;18.50;99.90;;;;;;5087519;28;20051;-65
2022/10/02 11:28:35;;;;;;;22.13;4.65;;;18.50;99.90;;;;;;5087422;28;20498;-64
2022/10/02 11:31:22;;;;;;;15.23;2.80;;;18.60;99.90;;;;;;5088342;28;20041;-64
2022/10/02 11:34:23;;;;;;;13.30;3.17;;;18.80;99.90;;;;;;5088655;28;20050;-65
2022/10/02 11:36:52;;;;;;;12.30;2.58;;;18.80;99.90;;;;;;5088773;28;20048;-65
2022/10/02 11:39:32;;;;;;;17.27;2.75;;;18.80;99.90;;;;;;5088621;28;20406;-65
2022/10/02 11:42:18;;;;;;;21.33;3.47;;;18.90;99.90;;;;;;5088474;28;20036;-64
2022/10/02 11:45:04;;;;;;;20.35;3.42;;;18.90;99.90;;;;;;5088282;28;20504;-65
2022/10/02 11:47:36;;;;;;;14.65;3.22;;;19.10;99.90;;;;;;5087997;28;20420;-64
2022/10/02 11:50:23;;;;;;;15.73;3.28;;;19.10;99.90;;;;;;5086893;28;20536;-65
2022/10/02 11:53:00;;;;;;;13.27;2.88;;;19.00;99.90;;;;;;5088368;28;20422;-65
2022/10/02 11:55:48;;;;;;;13.18;2.88;;;19.00;99.90;;;;;;5086468;28;20082;-65
2022/10/02 11:58:44;;;;;;;17.85;3.03;;;19.00;99.90;;;;;;5088288;28;20048;-65
2022/10/02 12:01:26;;;;;;;12.90;2.45;;;19.00;99.90;;;;;;5086953;28;20070;-65
2022/10/02 12:04:05;;;;;;;13.27;3.15;;;18.90;99.90;;;;;;5088226;28;20444;-64
2022/10/02 12:06:50;;;;;;;19.40;3.33;;;19.00;99.90;;;;;;5087010;28;20044;-65
2022/10/02 12:09:31;;;;;;;21.13;3.42;;;19.00;99.90;;;;;;5087861;28;20044;-65
2022/10/02 12:12:00;;;;;;;16.42;2.90;;;19.10;99.90;;;;;;5087485;28;20102;-65
2022/10/02 12:14:42;;;;;;;15.23;2.67;;;19.10;99.90;;;;;;5086708;28;20071;-65
2022/10/02 12:17:18;;;;;;;15.02;2.97;;;19.00;99.90;;;;;;5087925;28;20410;-64
2022/10/02 12:26:58;;;;;;;10.35;2.53;;;19.10;99.90;;;;;;5073970;28;20561;-65
2022/10/02 12:29:39;;;;;;;16.55;3.00;;;19.00;99.90;;;;;;5072927;28;20048;-65
2022/10/02 12:32:37;;;;;;;16.08;2.70;;;18.90;99.90;;;;;;5073890;28;20053;-65
2022/10/02 12:35:02;;;;;;;16.55;3.53;;;18.90;99.90;;;;;;5072941;28;20511;-65
2022/10/02 12:37:31;;;;;;;10.65;2.33;;;19.10;99.90;;;;;;5072858;28;20048;-65
2022/10/02 12:40:22;;;;;;;19.67;3.08;;;19.00;99.90;;;;;;5072456;28;20520;-65
2022/10/02 12:42:50;;;;;;;17.35;2.88;;;19.00;99.90;;;;;;5073800;28;20169;-65
2022/10/02 12:45:48;;;;;;;19.85;3.80;;;18.90;99.90;;;;;;5073601;28;20044;-65
2022/10/02 12:48:34;;;;;;;13.20;2.40;;;19.00;99.90;;;;;;5072640;28;20111;-65
2022/10/02 12:51:28;;;;;;;14.25;2.88;;;18.90;99.90;;;;;;5072476;28;20055;-65
2022/10/02 12:54:19;;;;;;;16.70;3.00;;;19.00;99.90;;;;;;5073539;28;20076;-65
2022/10/02 12:56:58;;;;;;;16.08;2.70;;;19.00;99.90;;;;;;5073471;28;20090;-65
2022/10/02 12:59:57;;;;;;;12.98;2.88;;;18.90;99.90;;;;;;5073454;28;20041;-65
2022/10/02 13:02:44;;;;;;;13.48;2.20;;;18.90;99.90;;;;;;5072571;28;20405;-65
2022/10/02 13:05:19;;;;;;;;;;;18.80;99.90;;;;;;5072804;28;20105;-65
2022/10/02 13:07:57;;;;;;;14.55;3.15;;;18.90;99.90;;;;;;5073477;28;19923;-66
2022/10/02 13:10:26;;;;;;;14.82;3.20;;;18.80;99.90;;;;;;5072824;28;20098;-65
2022/10/02 13:13:11;;;;;;;15.52;2.85;;;18.80;99.90;;;;;;5071945;28;20099;-65
2022/10/02 13:15:46;;;;;;;14.50;3.00;;;18.70;99.90;;;;;;5073176;28;20045;-65
2022/10/02 13:18:56;;;;;;;14.63;2.20;;;18.80;99.90;;;;;;5073217;28;20040;-66
2022/10/02 13:21:29;;;;;;;20.38;3.08;;;18.80;99.90;;;;;;5071863;28;20076;-66
2022/10/02 13:24:14;;;;;;;14.50;2.35;;;18.90;99.90;;;;;;5071999;28;20516;-66
2022/10/02 13:26:55;;;;;;;16.17;3.08;;;18.80;99.90;;;;;;5072845;28;20137;-65
2022/10/02 13:29:51;;;;;;;13.80;3.50;;;18.80;99.90;;;;;;5072816;28;20036;-65
2022/10/02 13:32:32;;;;;;;18.90;3.47;;;18.80;99.90;;;;;;5071868;28;20052;-66
2022/10/02 13:35:28;;;;;;;15.77;3.58;;;18.70;99.90;;;;;;5070832;28;20040;-65
2022/10/02 13:38:26;;;;;;;16.20;3.20;;;18.80;99.90;;;;;;5071542;28;20445;-66
2022/10/02 13:41:12;;;;;;;14.27;2.70;;;18.70;99.90;;;;;;5049050;28;20279;-65
2022/10/02 13:43:50;;;;;;;16.02;3.10;;;18.70;99.90;;;;;;5071337;28;20508;-66
2022/10/02 13:46:32;;;;;;;16.13;3.38;;;18.70;99.90;;;;;;5071366;28;20048;-66
2022/10/02 13:49:09;;;;;;;15.88;3.00;;;18.70;99.90;;;;;;5072733;28;20409;-66
2022/10/02 13:51:46;;;;;;;16.42;2.60;;;18.60;99.90;;;;;;5071111;28;20166;-66
2022/10/02 13:54:28;;;;;;;15.27;3.17;;;18.60;99.90;;;;;;5071145;28;20040;-65
2022/10/02 13:57:20;;;;;;;13.70;2.38;;;18.50;99.90;;;;;;5071338;28;20409;-65
2022/10/02 13:59:59;;;;;;;17.23;3.22;;;18.40;99.90;;;;;;5060751;28;20048;-66
2022/10/02 14:02:43;;;;;;;14.45;2.75;;;18.60;99.90;;;;;;5072231;28;20039;-65
2022/10/02 14:05:21;;;;;;;20.80;3.25;;;18.60;99.90;;;;;;5072210;28;20043;-66
2022/10/02 14:08:05;;;;;;;14.45;2.40;;;18.60;99.90;;;;;;5070788;28;20093;-66